createdAt,value
2022-10-12T00:01:03.828Z,6.43
2022-10-12T00:03:30.352Z,6.41
2022-10-12T00:06:06.246Z,6.39
2022-10-12T00:08:35.121Z,6.39
2022-10-12T00:11:02.051Z,6.36
2022-10-12T00:13:28.816Z,6.34
2022-10-12T00:15:55.664Z,6.31
2022-10-12T00:18:22.298Z,6.31
2022-10-12T00:20:48.837Z,6.29
2022-10-12T00:23:15.407Z,6.26
2022-10-12T00:25:42.398Z,6.25
2022-10-12T00:28:09.027Z,6.23
2022-10-12T00:30:40.119Z,6.21
2022-10-12T00:33:06.719Z,6.19
2022-10-12T00:35:33.179Z,6.18
2022-10-12T00:37:59.727Z,6.19
2022-10-12T00:40:26.383Z,6.17
2022-10-12T00:42:53.107Z,6.16
2022-10-12T00:45:19.700Z,6.14
2022-10-12T00:47:59.918Z,6.14
2022-10-12T00:50:35.287Z,6.10
2022-10-12T00:53:07.887Z,6.08
2022-10-12T00:55:40.659Z,6.06
2022-10-12T00:58:08.388Z,6.05
2022-10-12T01:00:37.103Z,6.04
2022-10-12T01:03:05.691Z,6.02
2022-10-12T01:05:33.271Z,6.00
2022-10-12T01:08:00.698Z,5.99
2022-10-12T01:10:27.862Z,5.98
2022-10-12T01:12:56.156Z,5.96
2022-10-12T01:15:27.268Z,5.95
2022-10-12T01:18:14.873Z,5.92
2022-10-12T01:21:09.316Z,5.91
2022-10-12T01:23:55.045Z,5.89
2022-10-12T01:26:40.583Z,5.87
2022-10-12T01:29:25.685Z,5.85
2022-10-12T01:32:01.770Z,5.83
2022-10-12T01:34:40.130Z,5.82
2022-10-12T01:37:17.658Z,5.80
2022-10-12T01:39:52.929Z,5.78
2022-10-12T01:42:37.252Z,5.78
2022-10-12T01:45:06.821Z,5.77
2022-10-12T01:47:36.003Z,5.74
2022-10-12T01:50:04.548Z,5.74
2022-10-12T01:52:39.668Z,5.71
2022-10-12T01:55:29.805Z,5.68
2022-10-12T01:58:09.183Z,5.65
2022-10-12T02:00:46.330Z,5.62
2022-10-12T02:03:35.988Z,5.60
2022-10-12T02:06:12.021Z,5.59
2022-10-12T02:08:50.891Z,5.56
2022-10-12T02:11:20.039Z,5.56
2022-10-12T02:14:13.036Z,5.51
2022-10-12T02:16:45.934Z,5.51
2022-10-12T02:19:17.776Z,5.49
2022-10-12T02:21:46.496Z,5.47
2022-10-12T02:24:15.730Z,5.45
2022-10-12T02:26:44.164Z,5.45
2022-10-12T02:29:16.077Z,5.44
2022-10-12T02:31:48.316Z,5.42
2022-10-12T02:34:18.957Z,5.41
2022-10-12T02:37:01.269Z,5.38
2022-10-12T02:39:37.791Z,5.38
2022-10-12T02:42:10.327Z,5.36
2022-10-12T02:44:40.350Z,5.35
2022-10-12T02:47:09.712Z,5.34
2022-10-12T02:49:36.797Z,5.32
2022-10-12T02:52:05.511Z,5.32
2022-10-12T02:54:32.123Z,5.29
2022-10-12T02:56:58.686Z,5.27
2022-10-12T02:59:25.343Z,5.26
2022-10-12T03:01:51.833Z,5.24
2022-10-12T03:04:18.391Z,5.21
2022-10-12T03:06:45.085Z,5.20
2022-10-12T03:09:11.588Z,5.18
2022-10-12T03:11:38.141Z,5.16
2022-10-12T03:14:04.691Z,5.14
2022-10-12T03:16:31.500Z,5.11
2022-10-12T03:18:58.509Z,5.11
2022-10-12T03:21:25.034Z,5.09
2022-10-12T03:23:51.720Z,5.08
2022-10-12T03:26:18.271Z,5.04
2022-10-12T03:28:45.137Z,5.03
2022-10-12T03:31:13.079Z,5.03
2022-10-12T03:33:39.603Z,5.02
2022-10-12T03:36:06.546Z,5.00
2022-10-12T03:38:33.070Z,4.99
2022-10-12T03:41:04.197Z,4.97
2022-10-12T03:43:33.944Z,4.97
2022-10-12T03:46:00.477Z,4.96
2022-10-12T03:48:27.100Z,4.96
2022-10-12T03:50:53.715Z,4.96
2022-10-12T03:53:20.426Z,4.95
2022-10-12T03:55:46.977Z,4.93
2022-10-12T03:58:13.705Z,4.92
2022-10-12T04:00:40.380Z,4.92
2022-10-12T04:03:06.992Z,4.89
2022-10-12T04:05:33.773Z,4.88
2022-10-12T04:08:00.321Z,4.86
2022-10-12T04:10:27.073Z,4.84
2022-10-12T04:12:53.717Z,4.83
2022-10-12T04:15:20.227Z,4.83
2022-10-12T04:17:46.894Z,4.81
2022-10-12T04:20:13.462Z,4.80
2022-10-12T04:22:40.130Z,4.78
2022-10-12T04:25:06.916Z,4.78
2022-10-12T04:27:33.468Z,4.77
2022-10-12T04:29:59.975Z,4.76
2022-10-12T04:32:27.069Z,4.75
2022-10-12T04:34:53.590Z,4.73
2022-10-12T04:37:20.064Z,4.71
2022-10-12T04:39:46.759Z,4.70
2022-10-12T04:42:13.523Z,4.68
2022-10-12T04:44:40.048Z,4.67
2022-10-12T04:47:06.802Z,4.67
2022-10-12T04:49:33.322Z,4.65
2022-10-12T04:51:59.850Z,4.63
2022-10-12T04:54:26.544Z,4.62
2022-10-12T04:56:53.173Z,4.62
2022-10-12T04:59:19.673Z,4.62
2022-10-12T05:01:46.264Z,4.60
2022-10-12T05:04:12.831Z,4.58
2022-10-12T05:06:39.383Z,4.57
2022-10-12T05:09:06.154Z,4.55
2022-10-12T05:11:32.721Z,4.55
2022-10-12T05:13:59.248Z,4.55
2022-10-12T05:16:25.790Z,4.55
2022-10-12T05:18:52.445Z,4.55
2022-10-12T05:21:19.699Z,4.56
2022-10-12T05:23:53.030Z,4.57
2022-10-12T05:26:19.658Z,4.59
2022-10-12T05:28:46.518Z,4.59
2022-10-12T05:31:13.267Z,4.58
2022-10-12T05:33:39.999Z,4.58
2022-10-12T05:36:06.883Z,4.58
2022-10-12T05:38:33.526Z,4.59
2022-10-12T05:41:00.907Z,4.61
2022-10-12T05:43:28.109Z,4.61
2022-10-12T05:45:54.726Z,4.62
2022-10-12T05:48:21.322Z,4.64
2022-10-12T05:50:47.846Z,4.66
2022-10-12T05:53:14.399Z,4.69
2022-10-12T05:55:40.979Z,4.72
2022-10-12T05:58:07.596Z,4.75
2022-10-12T06:00:34.142Z,4.77
2022-10-12T06:03:03.609Z,4.81
2022-10-12T06:05:30.202Z,4.85
2022-10-12T06:07:56.755Z,4.87
2022-10-12T06:10:27.649Z,4.91
2022-10-12T06:12:56.373Z,4.96
2022-10-12T06:15:23.033Z,5.00
2022-10-12T06:17:49.610Z,5.06
2022-10-12T06:20:16.218Z,5.11
2022-10-12T06:22:42.778Z,5.15
2022-10-12T06:25:09.716Z,5.16
2022-10-12T06:27:36.229Z,5.17
2022-10-12T06:30:03.303Z,5.17
2022-10-12T06:32:29.863Z,5.16
2022-10-12T06:34:56.632Z,5.17
2022-10-12T06:37:47.964Z,5.21
2022-10-12T06:40:10.342Z,5.25
2022-10-12T06:42:37.197Z,5.29
2022-10-12T06:45:06.188Z,5.33
2022-10-12T06:47:32.912Z,5.37
2022-10-12T06:49:59.422Z,5.44
2022-10-12T06:52:25.980Z,5.49
2022-10-12T06:54:52.572Z,5.54
2022-10-12T06:57:19.090Z,5.59
2022-10-12T06:59:45.598Z,5.62
2022-10-12T07:02:12.118Z,5.68
2022-10-12T07:04:38.716Z,5.74
2022-10-12T07:07:05.270Z,5.80
2022-10-12T07:09:31.905Z,5.86
2022-10-12T07:11:58.523Z,5.92
2022-10-12T07:14:25.104Z,5.99
2022-10-12T07:16:55.263Z,6.05
2022-10-12T07:19:22.199Z,6.13
2022-10-12T07:21:48.808Z,6.20
2022-10-12T07:24:15.413Z,6.28
2022-10-12T07:26:42.077Z,6.37
2022-10-12T07:29:09.271Z,6.44
2022-10-12T07:31:39.740Z,6.53
2022-10-12T07:34:06.264Z,6.61
2022-10-12T07:36:57.428Z,6.67
2022-10-12T07:39:21.466Z,6.74
2022-10-12T07:41:48.716Z,6.83
2022-10-12T07:44:15.476Z,6.91
2022-10-12T07:46:42.541Z,7.02
2022-10-12T07:49:11.351Z,7.12
2022-10-12T07:51:38.272Z,7.22
2022-10-12T07:54:04.990Z,7.31
2022-10-12T07:56:31.806Z,7.41
2022-10-12T07:58:58.966Z,7.49
2022-10-12T08:01:28.244Z,7.59
2022-10-12T08:04:00.268Z,7.67
2022-10-12T08:06:31.539Z,7.77
2022-10-12T08:08:59.393Z,7.85
2022-10-12T08:11:25.951Z,7.96
2022-10-12T08:13:52.518Z,8.08
2022-10-12T08:16:21.198Z,8.19
2022-10-12T08:18:48.187Z,8.28
2022-10-12T08:21:16.837Z,8.36
2022-10-12T08:23:45.078Z,8.43
2022-10-12T08:26:12.727Z,8.49
2022-10-12T08:28:39.370Z,8.55
2022-10-12T08:31:11.416Z,8.63
2022-10-12T08:33:38.057Z,8.70
2022-10-12T08:36:06.571Z,8.77
2022-10-12T08:38:34.100Z,8.83
2022-10-12T08:41:11.333Z,8.91
2022-10-12T08:43:48.750Z,8.99
2022-10-12T08:46:21.429Z,9.08
2022-10-12T08:48:55.355Z,9.16
2022-10-12T08:51:26.074Z,9.24
2022-10-12T08:53:58.506Z,9.32
2022-10-12T08:56:25.355Z,9.37
2022-10-12T08:58:53.218Z,9.45
2022-10-12T09:01:37.126Z,9.54
2022-10-12T09:04:41.892Z,9.65
2022-10-12T09:07:14.777Z,9.73
2022-10-12T09:10:06.285Z,9.81
2022-10-12T09:13:10.460Z,9.91
2022-10-12T09:16:05.804Z,10.01
2022-10-12T09:18:41.809Z,10.11
2022-10-12T09:21:16.867Z,10.22
2022-10-12T09:23:46.725Z,10.30
2022-10-12T09:26:13.307Z,10.39
2022-10-12T09:28:44.115Z,10.47
2022-10-12T09:31:10.733Z,10.54
2022-10-12T09:33:46.066Z,10.62
2022-10-12T09:36:19.538Z,10.71
2022-10-12T09:38:47.529Z,10.77
2022-10-12T09:41:22.845Z,10.90
2022-10-12T09:43:56.086Z,11.02
2022-10-12T09:46:55.831Z,11.13
2022-10-12T09:49:22.377Z,11.24
2022-10-12T09:51:59.836Z,11.37
2022-10-12T09:54:27.970Z,11.45
2022-10-12T09:56:55.302Z,11.53
2022-10-12T09:59:32.343Z,11.60
2022-10-12T10:02:09.645Z,11.71
2022-10-12T10:04:37.842Z,11.78
2022-10-12T10:07:30.778Z,11.83
2022-10-12T10:10:14.423Z,11.92
2022-10-12T10:12:52.114Z,12.00
2022-10-12T10:15:35.620Z,12.09
2022-10-12T10:18:05.958Z,12.20
2022-10-12T10:20:36.600Z,12.27
2022-10-12T10:23:05.232Z,12.37
2022-10-12T10:25:33.255Z,12.42
2022-10-12T10:28:21.259Z,12.48
2022-10-12T10:31:21.916Z,12.55
2022-10-12T10:34:11.282Z,12.61
2022-10-12T10:36:43.965Z,12.68
2022-10-12T10:39:21.522Z,12.71
2022-10-12T10:41:48.475Z,12.79
2022-10-12T10:44:33.563Z,12.82
2022-10-12T10:47:04.790Z,12.88
2022-10-12T10:49:55.586Z,12.93
2022-10-12T10:52:23.796Z,12.95
2022-10-12T10:55:14.788Z,12.98
2022-10-12T10:57:50.329Z,13.09
2022-10-12T11:00:37.819Z,13.16
2022-10-12T11:03:23.739Z,13.21
2022-10-12T11:06:05.619Z,13.29
2022-10-12T11:08:36.844Z,13.37
2022-10-12T11:11:15.147Z,13.44
2022-10-12T11:13:47.766Z,13.45
2022-10-12T11:16:28.053Z,13.47
2022-10-12T11:18:57.824Z,13.50
2022-10-12T11:21:45.847Z,13.56
2022-10-12T11:24:17.381Z,13.59
2022-10-12T11:26:56.947Z,13.60
2022-10-12T11:29:23.944Z,13.65
2022-10-12T11:32:00.609Z,13.70
2022-10-12T11:34:31.564Z,13.71
2022-10-12T11:39:49.784Z,13.80
2022-10-12T11:42:28.591Z,13.84
2022-10-12T11:44:55.200Z,13.89
2022-10-12T11:47:47.101Z,13.94
2022-10-12T11:50:28.587Z,13.99
2022-10-12T11:52:57.828Z,14.00
2022-10-12T11:55:41.117Z,14.01
2022-10-12T11:58:24.382Z,14.02
2022-10-12T12:01:29.470Z,14.04
2022-10-12T12:04:39.807Z,14.07
2022-10-12T12:07:06.500Z,14.11
2022-10-12T12:09:39.830Z,14.11
2022-10-12T12:12:16.126Z,14.15
2022-10-12T12:14:54.943Z,14.16
2022-10-12T12:17:26.915Z,14.18
2022-10-12T12:20:00.037Z,14.20
2022-10-12T12:22:54.566Z,14.24
2022-10-12T12:25:32.808Z,14.23
2022-10-12T12:28:21.813Z,14.25
2022-10-12T12:30:59.504Z,14.28
2022-10-12T12:33:32.258Z,14.32
2022-10-12T12:36:07.856Z,14.36
2022-10-12T12:38:40.120Z,14.42
2022-10-12T12:41:12.223Z,14.48
2022-10-12T12:43:56.157Z,14.54
2022-10-12T12:46:25.011Z,14.59
2022-10-12T12:48:51.444Z,14.61
2022-10-12T12:51:24.816Z,14.63
2022-10-12T12:54:00.054Z,14.67
2022-10-12T12:56:29.319Z,14.72
2022-10-12T12:59:23.918Z,14.76
2022-10-12T13:01:53.182Z,14.83
2022-10-12T13:04:54.437Z,14.90
2022-10-12T13:07:45.274Z,14.94
2022-10-12T13:10:37.459Z,14.98
2022-10-12T13:13:15.889Z,14.97
2022-10-12T13:15:55.111Z,14.95
2022-10-12T13:18:46.417Z,14.92
2022-10-12T13:21:21.722Z,14.89
2022-10-12T13:23:51.525Z,14.91
2022-10-12T13:26:24.459Z,14.88
2022-10-12T13:28:52.643Z,14.87
2022-10-12T13:31:31.934Z,14.85
2022-10-12T13:34:42.538Z,14.85
2022-10-12T13:37:14.940Z,14.85
2022-10-12T13:39:44.782Z,14.85
2022-10-12T13:42:26.542Z,14.83
2022-10-12T13:44:53.873Z,14.83
2022-10-12T13:47:32.756Z,14.83
2022-10-12T13:50:00.097Z,14.83
2022-10-12T13:52:32.928Z,14.83
2022-10-12T13:55:01.068Z,14.84
2022-10-12T13:57:39.088Z,14.83
2022-10-12T14:00:25.044Z,14.82
2022-10-12T14:03:00.497Z,14.81
2022-10-12T14:05:30.053Z,14.82
2022-10-12T14:08:02.453Z,14.81
2022-10-12T14:10:32.908Z,14.81
2022-10-12T14:13:02.082Z,14.82
2022-10-12T14:15:33.860Z,14.81
2022-10-12T14:18:00.344Z,14.78
2022-10-12T14:20:37.365Z,14.77
2022-10-12T14:23:13.123Z,14.79
2022-10-12T14:25:55.070Z,14.79
2022-10-12T14:28:30.955Z,14.78
2022-10-12T14:30:57.607Z,14.77
2022-10-12T14:33:26.712Z,14.75
2022-10-12T14:36:25.851Z,14.75
2022-10-12T14:38:53.225Z,14.74
2022-10-12T14:41:28.697Z,14.71
2022-10-12T14:44:14.272Z,14.67
2022-10-12T14:46:46.375Z,14.65
2022-10-12T14:49:32.662Z,14.60
2022-10-12T14:51:59.978Z,14.57
2022-10-12T14:54:26.548Z,14.50
2022-10-12T14:56:53.177Z,14.43
2022-10-12T14:59:19.753Z,14.38
2022-10-12T15:01:50.927Z,14.31
2022-10-12T15:04:18.399Z,14.26
2022-10-12T15:06:50.488Z,14.22
2022-10-12T15:09:17.579Z,14.20
2022-10-12T15:11:44.152Z,14.18
2022-10-12T15:14:11.683Z,14.19
2022-10-12T15:16:39.000Z,14.19
2022-10-12T15:19:05.584Z,14.19
2022-10-12T15:21:32.149Z,14.16
2022-10-12T15:23:58.727Z,14.11
2022-10-12T15:26:25.349Z,14.07
2022-10-12T15:28:51.983Z,14.01
2022-10-12T15:31:19.189Z,13.99
2022-10-12T15:33:46.009Z,13.94
2022-10-12T15:36:12.704Z,13.90
2022-10-12T15:38:39.870Z,13.88
2022-10-12T15:41:13.286Z,13.85
2022-10-12T15:43:41.995Z,13.84
2022-10-12T15:46:12.241Z,13.82
2022-10-12T15:48:40.116Z,13.80
2022-10-12T15:51:18.312Z,13.81
2022-10-12T15:53:44.973Z,13.81
2022-10-12T15:56:14.343Z,13.82
2022-10-12T15:58:41.206Z,13.83
2022-10-12T16:01:12.747Z,13.80
2022-10-12T16:03:39.804Z,13.79
2022-10-12T16:06:08.227Z,13.73
2022-10-12T16:08:35.267Z,13.68
2022-10-12T16:11:12.607Z,13.62
2022-10-12T16:13:46.849Z,13.56
2022-10-12T16:16:19.291Z,13.49
2022-10-12T16:18:45.899Z,13.41
2022-10-12T16:21:12.946Z,13.32
2022-10-12T16:23:41.212Z,13.25
2022-10-12T16:26:11.654Z,13.18
2022-10-12T16:28:38.392Z,13.09
2022-10-12T16:31:15.426Z,12.99
2022-10-12T16:33:42.488Z,12.91
2022-10-12T16:36:11.523Z,12.82
2022-10-12T16:38:38.042Z,12.75
2022-10-12T16:41:09.633Z,12.66
2022-10-12T16:43:36.190Z,12.59
2022-10-12T16:46:03.432Z,12.51
2022-10-12T16:48:30.114Z,12.42
2022-10-12T16:50:57.129Z,12.35
2022-10-12T16:53:23.695Z,12.26
2022-10-12T16:55:50.314Z,12.20
2022-10-12T16:58:17.027Z,12.12
2022-10-12T17:00:43.901Z,12.05
2022-10-12T17:03:14.067Z,11.99
2022-10-12T17:05:41.978Z,11.90
2022-10-12T17:08:12.633Z,11.84
2022-10-12T17:10:44.248Z,11.77
2022-10-12T17:13:13.462Z,11.71
2022-10-12T17:15:42.075Z,11.64
2022-10-12T17:18:11.244Z,11.58
2022-10-12T17:20:37.968Z,11.52
2022-10-12T17:23:04.576Z,11.45
2022-10-12T17:25:31.341Z,11.38
2022-10-12T17:27:57.921Z,11.33
2022-10-12T17:30:24.788Z,11.28
2022-10-12T17:32:51.304Z,11.22
2022-10-12T17:35:17.998Z,11.14
2022-10-12T17:37:44.579Z,11.10
2022-10-12T17:40:11.512Z,11.05
2022-10-12T17:42:38.173Z,11.02
2022-10-12T17:45:05.375Z,10.96
2022-10-12T17:47:32.012Z,10.93
2022-10-12T17:49:58.949Z,10.89
2022-10-12T17:52:27.934Z,10.84
2022-10-12T17:54:54.570Z,10.80
2022-10-12T17:57:23.961Z,10.76
2022-10-12T17:59:50.527Z,10.71
2022-10-12T18:02:17.018Z,10.67
2022-10-12T18:04:43.516Z,10.61
2022-10-12T18:07:10.989Z,10.56
2022-10-12T18:09:37.487Z,10.51
2022-10-12T18:12:04.023Z,10.46
2022-10-12T18:14:30.599Z,10.42
2022-10-12T18:16:58.751Z,10.38
2022-10-12T18:19:25.300Z,10.35
2022-10-12T18:21:51.833Z,10.31
2022-10-12T18:24:18.741Z,10.25
2022-10-12T18:26:47.124Z,10.21
2022-10-12T18:29:17.462Z,10.16
2022-10-12T18:31:45.459Z,10.11
2022-10-12T18:34:12.140Z,10.10
2022-10-12T18:36:40.751Z,10.05
2022-10-12T18:39:07.383Z,10.01
2022-10-12T18:41:34.111Z,9.95
2022-10-12T18:44:02.490Z,9.91
2022-10-12T18:46:33.042Z,9.85
2022-10-12T18:49:05.015Z,9.80
2022-10-12T18:51:35.682Z,9.75
2022-10-12T18:54:03.369Z,9.71
2022-10-12T18:56:32.086Z,9.68
2022-10-12T18:58:59.936Z,9.64
2022-10-12T19:01:28.255Z,9.57
2022-10-12T19:03:56.224Z,9.54
2022-10-12T19:06:29.933Z,9.50
2022-10-12T19:08:57.524Z,9.46
2022-10-12T19:11:26.266Z,9.42
2022-10-12T19:13:56.392Z,9.39
2022-10-12T19:16:23.614Z,9.34
2022-10-12T19:18:59.339Z,9.32
2022-10-12T19:21:26.924Z,9.29
2022-10-12T19:23:54.421Z,9.26
2022-10-12T19:26:23.927Z,9.21
2022-10-12T19:28:53.165Z,9.15
2022-10-12T19:31:23.235Z,9.12
2022-10-12T19:33:50.294Z,9.10
2022-10-12T19:36:18.357Z,9.06
2022-10-12T19:38:48.133Z,9.02
2022-10-12T19:41:15.077Z,8.98
2022-10-12T19:43:43.147Z,8.96
2022-10-12T19:46:11.471Z,8.92
2022-10-12T19:48:39.172Z,8.88
2022-10-12T19:51:11.680Z,8.87
2022-10-12T19:53:39.593Z,8.84
2022-10-12T19:56:17.268Z,8.82
2022-10-12T19:58:46.695Z,8.80
2022-10-12T20:01:15.515Z,8.78
2022-10-12T20:03:47.473Z,8.75
2022-10-12T20:06:14.873Z,8.72
2022-10-12T20:08:43.768Z,8.69
2022-10-12T20:11:17.843Z,8.67
2022-10-12T20:13:46.785Z,8.65
2022-10-12T20:16:13.978Z,8.62
2022-10-12T20:18:41.855Z,8.61
2022-10-12T20:21:11.551Z,8.57
2022-10-12T20:23:40.335Z,8.56
2022-10-12T20:26:09.640Z,8.53
2022-10-12T20:28:37.854Z,8.50
2022-10-12T20:31:05.711Z,8.47
2022-10-12T20:33:33.539Z,8.44
2022-10-12T20:36:00.713Z,8.43
2022-10-12T20:38:27.858Z,8.40
2022-10-12T20:41:10.201Z,8.39
2022-10-12T20:43:40.323Z,8.37
2022-10-12T20:46:10.275Z,8.35
2022-10-12T20:48:39.683Z,8.35
2022-10-12T20:51:07.910Z,8.33
2022-10-12T20:53:35.568Z,8.32
2022-10-12T20:56:06.578Z,8.28
2022-10-12T20:58:33.467Z,8.27
2022-10-12T21:01:11.707Z,8.25
2022-10-12T21:03:38.816Z,8.23
2022-10-12T21:06:10.798Z,8.21
2022-10-12T21:08:37.784Z,8.19
2022-10-12T21:11:05.407Z,8.18
2022-10-12T21:13:36.583Z,8.16
2022-10-12T21:16:05.523Z,8.17
2022-10-12T21:18:37.601Z,8.17
2022-10-12T21:21:14.386Z,8.16
2022-10-12T21:23:42.273Z,8.15
2022-10-12T21:26:17.496Z,8.16
2022-10-12T21:28:44.840Z,8.15
2022-10-12T21:31:12.570Z,8.16
2022-10-12T21:33:39.702Z,8.17
2022-10-12T21:36:07.796Z,8.17
2022-10-12T21:38:35.248Z,8.20
2022-10-12T21:41:01.770Z,8.24
2022-10-12T21:43:28.367Z,8.26
2022-10-12T21:45:55.118Z,8.27
2022-10-12T21:48:21.765Z,8.27
2022-10-12T21:50:48.399Z,8.27
2022-10-12T21:53:15.026Z,8.24
2022-10-12T21:55:41.685Z,8.24
2022-10-12T21:58:08.295Z,8.23
2022-10-12T22:00:34.882Z,8.23
2022-10-12T22:03:01.772Z,8.22
2022-10-12T22:05:30.328Z,8.22
2022-10-12T22:07:57.090Z,8.22
2022-10-12T22:10:23.719Z,8.22
2022-10-12T22:12:50.273Z,8.21
2022-10-12T22:15:17.029Z,8.21
2022-10-12T22:17:43.619Z,8.22
2022-10-12T22:20:10.889Z,8.22
2022-10-12T22:22:41.670Z,8.24
2022-10-12T22:25:08.383Z,8.26
2022-10-12T22:27:37.381Z,8.28
2022-10-12T22:30:11.569Z,8.32
2022-10-12T22:32:38.080Z,8.36
2022-10-12T22:35:04.924Z,8.39
2022-10-12T22:37:31.456Z,8.42
2022-10-12T22:39:58.194Z,8.45
2022-10-12T22:42:24.906Z,8.45
2022-10-12T22:44:51.573Z,8.47
2022-10-12T22:47:18.182Z,8.49
2022-10-12T22:49:47.005Z,8.49
2022-10-12T22:52:14.055Z,8.51
2022-10-12T22:54:41.081Z,8.50
2022-10-12T22:57:07.653Z,8.49
2022-10-12T22:59:34.492Z,8.49
2022-10-12T23:02:01.042Z,8.44
2022-10-12T23:04:29.579Z,8.44
2022-10-12T23:06:56.088Z,8.42
2022-10-12T23:09:23.587Z,8.40
2022-10-12T23:11:51.909Z,8.37
2022-10-12T23:14:18.469Z,8.34
2022-10-12T23:16:45.001Z,8.32
2022-10-12T23:19:11.551Z,8.31
2022-10-12T23:21:38.092Z,8.26
2022-10-12T23:24:05.224Z,8.23
2022-10-12T23:26:31.957Z,8.19
2022-10-12T23:29:03.638Z,8.15
2022-10-12T23:31:31.014Z,8.11
2022-10-12T23:34:04.690Z,8.07
2022-10-12T23:36:34.094Z,8.03
2022-10-12T23:39:01.842Z,8.00
2022-10-12T23:41:28.729Z,7.97
2022-10-12T23:43:55.363Z,7.95
2022-10-12T23:46:22.334Z,7.91
2022-10-12T23:48:48.953Z,7.88
2022-10-12T23:51:15.488Z,7.86
2022-10-12T23:53:42.750Z,7.83
2022-10-12T23:56:11.116Z,7.81
2022-10-12T23:58:37.812Z,7.80
